createdAt,value
2018-01-25T00:00:24.215Z,9.60
2018-01-25T00:02:52.661Z,9.60
2018-01-25T00:05:20.231Z,9.60
2018-01-25T00:07:47.741Z,9.50
2018-01-25T00:10:16.037Z,9.60
2018-01-25T00:12:43.522Z,9.60
2018-01-25T00:15:11.077Z,9.50
2018-01-25T00:17:38.620Z,9.40
2018-01-25T00:20:06.920Z,9.50
2018-01-25T00:22:34.403Z,9.50
2018-01-25T00:25:01.910Z,9.50
2018-01-25T00:27:29.416Z,9.40
2018-01-25T00:29:56.937Z,9.40
2018-01-25T00:32:25.227Z,9.40
2018-01-25T00:34:53.558Z,9.40
2018-01-25T00:37:21.049Z,9.40
2018-01-25T00:39:48.609Z,9.40
2018-01-25T00:42:16.130Z,9.30
2018-01-25T00:44:44.276Z,9.20
2018-01-25T00:47:12.558Z,9.30
2018-01-25T00:49:40.892Z,9.40
2018-01-25T00:52:08.393Z,9.40
2018-01-25T00:54:36.664Z,9.40
2018-01-25T00:57:04.140Z,9.40
2018-01-25T00:59:32.418Z,9.60
2018-01-25T01:02:00.703Z,9.60
2018-01-25T01:04:28.982Z,9.70
2018-01-25T01:06:57.257Z,9.70
2018-01-25T01:09:25.537Z,9.70
2018-01-25T01:11:53.814Z,9.80
2018-01-25T01:14:21.323Z,9.80
2018-01-25T01:16:48.822Z,9.90
2018-01-25T01:19:16.304Z,9.90
2018-01-25T01:21:44.567Z,9.90
2018-01-25T01:24:12.869Z,9.80
2018-01-25T01:26:41.154Z,9.80
2018-01-25T01:29:08.703Z,9.70
2018-01-25T01:31:36.978Z,9.70
2018-01-25T01:34:04.768Z,9.70
2018-01-25T01:36:32.249Z,9.70
2018-01-25T01:38:59.760Z,9.80
2018-01-25T01:41:27.248Z,9.90
2018-01-25T01:43:54.748Z,9.90
2018-01-25T01:46:22.237Z,9.80
2018-01-25T01:48:49.720Z,9.80
2018-01-25T01:51:17.279Z,9.80
2018-01-25T01:53:44.921Z,9.80
2018-01-25T01:56:12.448Z,9.80
2018-01-25T01:58:40.683Z,9.70
2018-01-25T02:01:08.184Z,9.70
2018-01-25T02:03:35.729Z,9.70
2018-01-25T02:06:03.249Z,9.80
2018-01-25T02:08:30.741Z,9.80
2018-01-25T02:10:58.235Z,9.80
2018-01-25T02:13:25.714Z,9.80
2018-01-25T02:15:53.991Z,9.90
2018-01-25T02:18:22.243Z,10.00
2018-01-25T02:20:49.828Z,10.00
2018-01-25T02:23:18.077Z,10.00
2018-01-25T02:25:45.580Z,10.00
2018-01-25T02:28:13.828Z,9.90
2018-01-25T02:30:41.331Z,9.90
2018-01-25T02:33:08.831Z,9.80
2018-01-25T02:35:36.416Z,9.80
2018-01-25T02:38:04.660Z,9.70
2018-01-25T02:40:32.144Z,9.70
2018-01-25T02:42:59.650Z,9.70
2018-01-25T02:45:27.969Z,9.70
2018-01-25T02:47:55.448Z,9.60
2018-01-25T02:50:22.954Z,9.70
2018-01-25T02:52:51.224Z,9.80
2018-01-25T02:55:19.518Z,9.90
2018-01-25T02:57:47.770Z,9.90
2018-01-25T03:00:15.259Z,9.90
2018-01-25T03:02:43.529Z,9.90
2018-01-25T03:05:11.784Z,9.90
2018-01-25T03:07:39.246Z,9.90
2018-01-25T03:10:06.752Z,9.90
2018-01-25T03:12:34.985Z,9.80
2018-01-25T03:15:02.480Z,9.80
2018-01-25T03:17:31.656Z,9.70
2018-01-25T03:19:59.148Z,9.70
2018-01-25T03:22:27.423Z,9.70
2018-01-25T03:24:55.687Z,9.70
2018-01-25T03:27:23.177Z,9.70
2018-01-25T03:29:51.421Z,9.70
2018-01-25T03:32:18.920Z,9.70
2018-01-25T03:34:47.167Z,9.70
2018-01-25T03:37:14.871Z,9.70
2018-01-25T03:39:43.809Z,9.80
2018-01-25T03:42:11.302Z,9.80
2018-01-25T03:44:38.936Z,9.90
2018-01-25T03:47:06.472Z,9.90
2018-01-25T03:49:34.709Z,10.00
2018-01-25T03:52:02.229Z,10.00
2018-01-25T03:54:29.701Z,10.00
2018-01-25T03:56:57.208Z,9.90
2018-01-25T03:59:24.696Z,9.80
2018-01-25T04:01:52.971Z,9.80
2018-01-25T04:04:21.215Z,9.80
2018-01-25T04:06:48.824Z,9.70
2018-01-25T04:09:17.077Z,9.60
2018-01-25T04:11:44.575Z,9.60
2018-01-25T04:14:12.045Z,9.60
2018-01-25T04:16:39.552Z,9.50
2018-01-25T04:19:07.048Z,9.60
2018-01-25T04:21:35.299Z,9.70
2018-01-25T04:24:02.820Z,9.70
2018-01-25T04:26:30.345Z,9.70
2018-01-25T04:28:59.393Z,9.60
2018-01-25T04:31:26.868Z,9.60
2018-01-25T04:33:54.359Z,9.70
2018-01-25T04:36:22.635Z,9.80
2018-01-25T04:38:50.117Z,9.80
2018-01-25T04:41:18.372Z,9.90
2018-01-25T04:43:45.868Z,9.90
2018-01-25T04:46:14.128Z,10.00
2018-01-25T04:48:41.648Z,10.00
2018-01-25T04:51:09.146Z,10.10
2018-01-25T04:53:38.170Z,10.20
2018-01-25T04:56:06.449Z,10.20
2018-01-25T04:58:34.756Z,10.30
2018-01-25T05:01:02.249Z,10.20
2018-01-25T05:03:29.736Z,10.30
2018-01-25T05:05:57.212Z,10.20
2018-01-25T05:08:25.506Z,10.30
2018-01-25T05:10:53.764Z,10.30
2018-01-25T05:13:22.771Z,10.30
2018-01-25T05:15:51.028Z,10.40
2018-01-25T05:18:18.533Z,10.30
2018-01-25T05:20:46.778Z,10.30
2018-01-25T05:23:15.055Z,10.30
2018-01-25T05:25:42.549Z,10.30
2018-01-25T05:28:10.816Z,10.30
2018-01-25T05:30:38.310Z,10.30
2018-01-25T05:33:05.805Z,10.30
2018-01-25T05:35:33.347Z,10.30
2018-01-25T05:38:01.581Z,10.40
2018-01-25T05:40:29.837Z,10.40
2018-01-25T05:42:57.332Z,10.40
2018-01-25T05:45:25.590Z,10.40
2018-01-25T05:47:53.080Z,10.40
2018-01-25T05:50:21.337Z,10.50
2018-01-25T05:52:48.848Z,10.40
2018-01-25T05:55:16.339Z,10.40
2018-01-25T05:57:43.904Z,10.40
2018-01-25T06:00:11.379Z,10.40
2018-01-25T06:02:38.953Z,10.50
2018-01-25T06:05:06.442Z,10.50
2018-01-25T06:07:34.713Z,10.60
2018-01-25T06:10:02.964Z,10.60
2018-01-25T06:12:30.463Z,10.60
2018-01-25T06:14:58.718Z,10.70
2018-01-25T06:17:26.238Z,10.70
2018-01-25T06:19:54.371Z,10.70
2018-01-25T06:22:22.660Z,10.70
2018-01-25T06:24:50.924Z,10.70
2018-01-25T06:27:19.211Z,10.70
2018-01-25T06:29:46.736Z,10.70
2018-01-25T06:32:14.215Z,10.70
2018-01-25T06:34:41.700Z,10.70
2018-01-25T06:37:09.986Z,10.70
2018-01-25T06:39:38.282Z,10.70
2018-01-25T06:42:06.538Z,10.70
2018-01-25T06:44:35.553Z,10.70
2018-01-25T06:47:03.030Z,10.70
2018-01-25T06:49:30.553Z,10.70
2018-01-25T06:51:58.045Z,10.70
2018-01-25T06:54:26.307Z,10.70
2018-01-25T06:56:53.796Z,10.70
2018-01-25T06:59:22.051Z,10.70
2018-01-25T07:01:49.554Z,10.70
2018-01-25T07:04:17.064Z,10.70
2018-01-25T07:06:44.626Z,10.80
2018-01-25T07:09:12.111Z,10.80
2018-01-25T07:11:40.388Z,10.80
2018-01-25T07:14:08.689Z,10.80
2018-01-25T07:16:36.941Z,10.80
2018-01-25T07:19:04.452Z,10.80
2018-01-25T07:21:31.928Z,10.80
2018-01-25T07:23:59.452Z,10.80
2018-01-25T07:26:27.697Z,10.80
2018-01-25T07:28:55.223Z,10.80
2018-01-25T07:31:22.718Z,10.80
2018-01-25T07:33:50.320Z,10.90
2018-01-25T07:36:18.582Z,10.90
2018-01-25T07:38:46.108Z,10.90
2018-01-25T07:41:13.592Z,10.90
2018-01-25T07:43:41.087Z,10.90
2018-01-25T07:46:09.367Z,11.00
2018-01-25T07:48:37.644Z,11.00
2018-01-25T07:51:05.928Z,11.00
2018-01-25T07:53:33.439Z,11.00
2018-01-25T07:56:00.936Z,11.00
2018-01-25T07:58:28.436Z,11.10
2018-01-25T08:00:56.685Z,10.90
2018-01-25T08:03:24.169Z,10.90
2018-01-25T08:05:52.435Z,10.80
2018-01-25T08:08:20.695Z,10.70
2018-01-25T08:10:48.197Z,10.70
2018-01-25T08:13:22.269Z,10.60
2018-01-25T08:15:49.771Z,10.60
2018-01-25T08:18:18.067Z,10.60
2018-01-25T08:20:45.568Z,10.50
2018-01-25T08:23:13.699Z,10.60
2018-01-25T08:25:41.958Z,10.40
2018-01-25T08:28:10.228Z,10.40
2018-01-25T08:30:38.515Z,10.40
2018-01-25T08:33:06.905Z,10.30
2018-01-25T08:35:34.464Z,10.30
2018-01-25T08:38:01.947Z,10.30
2018-01-25T08:40:30.216Z,10.20
2018-01-25T08:42:58.492Z,10.20
2018-01-25T08:45:26.767Z,10.20
2018-01-25T08:47:54.264Z,10.20
2018-01-25T08:50:21.790Z,10.20
2018-01-25T08:52:49.277Z,10.20
2018-01-25T08:55:17.560Z,10.30
2018-01-25T08:57:45.828Z,10.30
2018-01-25T09:00:14.101Z,10.30
2018-01-25T09:02:41.626Z,10.30
2018-01-25T09:05:09.125Z,10.30
2018-01-25T09:07:36.607Z,10.20
2018-01-25T09:10:04.877Z,10.20
2018-01-25T09:12:33.149Z,10.20
2018-01-25T09:15:00.650Z,10.10
2018-01-25T09:17:28.168Z,10.10
2018-01-25T09:19:55.642Z,10.20
2018-01-25T09:22:23.148Z,10.20
2018-01-25T09:24:50.645Z,10.20
2018-01-25T09:27:18.149Z,10.20
2018-01-25T09:29:45.656Z,10.30
2018-01-25T09:32:13.167Z,10.40
2018-01-25T09:34:41.427Z,10.80
2018-01-25T09:37:09.695Z,10.60
2018-01-25T09:39:37.196Z,10.60
2018-01-25T09:42:05.503Z,10.70
2018-01-25T09:44:33.779Z,10.70
2018-01-25T09:47:01.308Z,10.70
2018-01-25T09:49:29.582Z,10.70
2018-01-25T09:51:57.141Z,10.70
2018-01-25T09:54:25.426Z,10.70
2018-01-25T09:56:54.853Z,10.70
2018-01-25T09:59:23.123Z,10.70
2018-01-25T10:01:50.686Z,10.70
2018-01-25T10:04:18.929Z,10.70
2018-01-25T10:06:46.441Z,10.70
2018-01-25T10:09:14.702Z,10.70
2018-01-25T10:11:42.204Z,10.70
2018-01-25T10:14:09.709Z,10.70
2018-01-25T10:16:37.213Z,10.80
2018-01-25T10:19:05.492Z,10.70
2018-01-25T10:21:33.782Z,10.70
2018-01-25T10:24:02.182Z,10.60
2018-01-25T10:26:29.723Z,10.60
2018-01-25T10:28:57.990Z,10.70
2018-01-25T10:31:26.284Z,10.70
2018-01-25T10:33:55.416Z,10.60
2018-01-25T10:36:22.948Z,10.60
2018-01-25T10:38:51.215Z,10.80
2018-01-25T10:41:19.561Z,10.90
2018-01-25T10:43:47.162Z,10.90
2018-01-25T10:46:14.673Z,11.10
2018-01-25T10:48:42.202Z,11.20
2018-01-25T10:51:10.570Z,11.10
2018-01-25T10:53:38.867Z,11.10
2018-01-25T10:56:07.159Z,11.00
2018-01-25T10:58:34.672Z,11.00
2018-01-25T11:01:07.859Z,11.10
2018-01-25T11:03:35.438Z,11.10
2018-01-25T11:06:03.524Z,11.20
2018-01-25T11:08:31.797Z,11.30
2018-01-25T11:10:59.419Z,11.30
2018-01-25T11:13:26.953Z,11.40
2018-01-25T11:15:55.269Z,11.40
2018-01-25T11:18:22.787Z,11.40
2018-01-25T11:20:51.053Z,11.30
2018-01-25T11:23:18.558Z,11.30
2018-01-25T11:25:46.066Z,11.20
2018-01-25T11:28:13.601Z,11.20
2018-01-25T11:30:41.185Z,11.20
2018-01-25T11:33:08.785Z,11.20
2018-01-25T11:35:36.320Z,11.10
2018-01-25T11:38:03.816Z,11.10
2018-01-25T11:40:31.395Z,11.10
2018-01-25T11:42:59.675Z,11.10
2018-01-25T11:45:27.960Z,11.20
2018-01-25T11:47:56.258Z,11.20
2018-01-25T11:50:23.793Z,11.20
2018-01-25T11:52:52.069Z,11.20
2018-01-25T11:55:20.333Z,11.30
2018-01-25T11:57:47.822Z,11.30
2018-01-25T12:00:15.346Z,11.30
2018-01-25T12:02:42.840Z,11.30
2018-01-25T12:05:11.116Z,11.20
2018-01-25T12:07:39.397Z,11.20
2018-01-25T12:10:06.933Z,11.20
2018-01-25T12:12:35.158Z,11.10
2018-01-25T12:15:02.801Z,11.10
2018-01-25T12:17:31.097Z,11.10
2018-01-25T12:19:59.374Z,11.00
2018-01-25T12:22:27.678Z,10.90
2018-01-25T12:24:55.189Z,10.90
2018-01-25T12:27:22.687Z,10.90
2018-01-25T12:29:50.969Z,10.90
2018-01-25T12:32:19.338Z,10.90
2018-01-25T12:34:46.897Z,10.90
2018-01-25T12:37:14.973Z,11.00
2018-01-25T12:39:43.238Z,11.00
2018-01-25T12:42:11.526Z,10.90
2018-01-25T12:44:39.021Z,10.90
2018-01-25T12:47:06.548Z,10.90
2018-01-25T12:49:34.064Z,10.90
2018-01-25T12:52:01.578Z,10.90
2018-01-25T12:54:29.109Z,10.80
2018-01-25T12:56:56.630Z,10.80
2018-01-25T12:59:24.992Z,10.90
2018-01-25T13:01:52.495Z,10.90
2018-01-25T13:04:20.012Z,10.90
2018-01-25T13:06:47.518Z,10.90
2018-01-25T13:09:15.027Z,11.00
2018-01-25T13:11:42.519Z,11.00
2018-01-25T13:14:10.824Z,11.00
2018-01-25T13:16:38.344Z,11.00
2018-01-25T13:19:05.857Z,11.00
2018-01-25T13:21:33.460Z,10.90
2018-01-25T13:24:00.967Z,10.90
2018-01-25T13:26:29.235Z,11.00
2018-01-25T13:28:57.516Z,11.00
2018-01-25T13:31:25.789Z,11.00
2018-01-25T13:33:53.341Z,11.00
2018-01-25T13:36:20.866Z,11.00
2018-01-25T13:38:48.396Z,11.00
2018-01-25T13:41:15.895Z,11.00
2018-01-25T13:43:43.420Z,11.00
2018-01-25T13:46:11.707Z,11.10
2018-01-25T13:48:40.004Z,11.10
2018-01-25T13:51:07.524Z,11.10
2018-01-25T13:53:35.464Z,11.10
2018-01-25T13:56:02.987Z,11.10
2018-01-25T13:58:31.248Z,11.10
2018-01-25T14:00:58.806Z,11.00
2018-01-25T14:03:26.315Z,11.00
2018-01-25T14:05:53.812Z,11.00
2018-01-25T14:08:21.352Z,10.90
2018-01-25T14:10:48.909Z,10.90
2018-01-25T14:13:16.477Z,10.90
2018-01-25T14:15:44.046Z,10.90
2018-01-25T14:18:11.560Z,10.90
2018-01-25T14:20:39.057Z,10.90
2018-01-25T14:23:06.564Z,10.90
2018-01-25T14:25:34.088Z,10.80
2018-01-25T14:28:01.616Z,10.70
2018-01-25T14:30:29.878Z,10.70
2018-01-25T14:32:57.409Z,10.70
2018-01-25T14:35:24.925Z,10.70
2018-01-25T14:37:53.224Z,10.50
2018-01-25T14:40:21.509Z,10.50
2018-01-25T14:42:49.891Z,10.50
2018-01-25T14:45:18.196Z,10.40
2018-01-25T14:47:45.738Z,10.50
2018-01-25T14:50:13.273Z,10.50
2018-01-25T14:52:40.772Z,10.50
2018-01-25T14:55:08.292Z,10.40
2018-01-25T14:57:35.791Z,10.40
2018-01-25T15:00:03.351Z,10.40
2018-01-25T15:02:31.644Z,10.50
2018-01-25T15:05:00.059Z,10.50
2018-01-25T15:07:28.329Z,10.50
2018-01-25T15:09:55.855Z,10.40
2018-01-25T15:12:24.303Z,10.40
2018-01-25T15:14:51.785Z,10.40
2018-01-25T15:17:20.062Z,10.40
2018-01-25T15:19:49.076Z,10.40
2018-01-25T15:22:17.005Z,10.40
2018-01-25T15:24:44.092Z,10.20
2018-01-25T15:27:17.327Z,10.20
2018-01-25T15:29:44.820Z,10.20
2018-01-25T15:32:12.310Z,10.20
2018-01-25T15:34:39.900Z,10.10
2018-01-25T15:37:08.177Z,10.10
2018-01-25T15:39:36.532Z,10.10
2018-01-25T15:42:04.083Z,10.10
2018-01-25T15:44:32.433Z,10.20
2018-01-25T15:46:59.955Z,10.10
2018-01-25T15:49:27.488Z,10.20
2018-01-25T15:51:54.988Z,10.20
2018-01-25T15:54:23.270Z,10.20
2018-01-25T15:56:51.547Z,10.10
2018-01-25T15:59:19.038Z,10.20
2018-01-25T16:01:47.357Z,10.20
2018-01-25T16:04:14.882Z,10.20
2018-01-25T16:06:42.404Z,10.10
2018-01-25T16:09:11.431Z,10.10
2018-01-25T16:11:38.923Z,10.10
2018-01-25T16:14:06.409Z,10.00
2018-01-25T16:16:33.896Z,10.00
2018-01-25T16:19:02.182Z,9.90
2018-01-25T16:21:30.461Z,9.90
2018-01-25T16:23:57.981Z,9.90
2018-01-25T16:26:25.483Z,9.90
2018-01-25T16:28:54.495Z,9.80
2018-01-25T16:31:22.802Z,9.70
2018-01-25T16:33:50.309Z,9.70
2018-01-25T16:36:17.835Z,9.80
2018-01-25T16:38:45.411Z,9.80
2018-01-25T16:41:12.908Z,9.80
2018-01-25T16:43:40.408Z,9.90
2018-01-25T16:46:07.921Z,9.80
2018-01-25T16:48:35.472Z,9.80
2018-01-25T16:51:02.969Z,9.80
2018-01-25T16:53:32.115Z,9.80
2018-01-25T16:55:59.675Z,9.80
2018-01-25T16:58:27.192Z,9.80
2018-01-25T17:00:54.676Z,9.80
2018-01-25T17:03:22.949Z,9.80
2018-01-25T17:05:50.431Z,9.80
2018-01-25T17:08:18.017Z,9.80
2018-01-25T17:10:46.221Z,9.90
2018-01-25T17:13:13.704Z,9.90
2018-01-25T17:15:41.975Z,9.90
2018-01-25T17:18:09.473Z,9.90
2018-01-25T17:20:37.733Z,9.90
2018-01-25T17:23:06.028Z,9.90
2018-01-25T17:25:34.237Z,9.90
2018-01-25T17:28:01.796Z,10.00
2018-01-25T17:30:29.654Z,10.00
2018-01-25T17:32:57.229Z,10.00
2018-01-25T17:35:24.739Z,10.00
2018-01-25T17:37:52.269Z,10.00
2018-01-25T17:40:19.794Z,10.00
2018-01-25T17:42:48.077Z,10.00
2018-01-25T17:45:16.330Z,10.00
2018-01-25T17:47:43.848Z,10.00
2018-01-25T17:50:11.352Z,9.90
2018-01-25T17:52:38.849Z,10.00
2018-01-25T17:55:07.138Z,9.90
2018-01-25T17:57:35.449Z,9.80
2018-01-25T18:00:02.974Z,9.80
2018-01-25T18:02:31.277Z,9.80
2018-01-25T18:05:00.052Z,9.80
2018-01-25T18:07:28.398Z,9.70
2018-01-25T18:09:55.924Z,9.70
2018-01-25T18:12:23.451Z,9.70
2018-01-25T18:14:51.712Z,9.70
2018-01-25T18:17:19.264Z,9.70
2018-01-25T18:19:46.722Z,9.70
2018-01-25T18:22:14.212Z,9.70
2018-01-25T18:24:43.233Z,9.60
2018-01-25T18:27:11.518Z,9.60
2018-01-25T18:29:39.796Z,9.60
2018-01-25T18:32:08.089Z,9.50
2018-01-25T18:34:36.384Z,9.50
2018-01-25T18:37:03.879Z,9.50
2018-01-25T18:39:31.541Z,9.50
2018-01-25T18:41:59.027Z,9.40
2018-01-25T18:44:27.303Z,9.50
2018-01-25T18:46:54.810Z,9.50
2018-01-25T18:49:22.358Z,9.50
2018-01-25T18:51:49.858Z,9.50
2018-01-25T18:54:17.373Z,9.50
2018-01-25T18:56:45.640Z,9.50
2018-01-25T18:59:14.656Z,9.50
2018-01-25T19:01:43.050Z,9.50
2018-01-25T19:04:10.555Z,9.50
2018-01-25T19:06:38.055Z,9.50
2018-01-25T19:09:06.326Z,9.60
2018-01-25T19:11:34.669Z,9.50
2018-01-25T19:14:02.190Z,9.50
2018-01-25T19:16:30.571Z,9.60
2018-01-25T19:18:58.856Z,9.60
2018-01-25T19:21:27.125Z,9.50
2018-01-25T19:23:55.447Z,9.50
2018-01-25T19:26:22.991Z,9.50
2018-01-25T19:28:51.257Z,9.50
2018-01-25T19:31:19.619Z,9.50
2018-01-25T19:33:47.962Z,9.50
2018-01-25T19:36:15.453Z,9.50
2018-01-25T19:38:42.975Z,9.50
2018-01-25T19:41:10.473Z,9.40
2018-01-25T19:43:37.991Z,9.40
2018-01-25T19:46:05.522Z,9.40
2018-01-25T19:48:34.515Z,9.40
2018-01-25T19:51:02.170Z,9.40
2018-01-25T19:53:29.731Z,9.40
2018-01-25T19:55:58.750Z,9.40
2018-01-25T19:58:27.760Z,9.40
2018-01-25T20:00:56.042Z,9.40
2018-01-25T20:03:24.303Z,9.40
2018-01-25T20:05:51.830Z,9.40
2018-01-25T20:08:19.358Z,9.40
2018-01-25T20:10:47.672Z,9.40
2018-01-25T20:13:16.052Z,9.40
2018-01-25T20:15:43.614Z,9.40
2018-01-25T20:18:11.107Z,9.30
2018-01-25T20:20:38.613Z,9.30
2018-01-25T20:23:06.891Z,9.30
2018-01-25T20:25:35.577Z,9.40
2018-01-25T20:28:03.839Z,9.30
2018-01-25T20:30:31.758Z,9.30
2018-01-25T20:32:59.245Z,9.30
2018-01-25T20:35:26.737Z,9.30
2018-01-25T20:37:55.061Z,9.30
2018-01-25T20:40:24.045Z,9.20
2018-01-25T20:42:52.314Z,9.20
2018-01-25T20:45:20.577Z,9.20
2018-01-25T20:47:48.053Z,9.20
2018-01-25T20:50:16.352Z,9.20
2018-01-25T20:52:44.644Z,9.20
2018-01-25T20:55:12.373Z,9.20
2018-01-25T20:57:41.374Z,9.30
2018-01-25T21:00:10.537Z,9.20
2018-01-25T21:02:38.087Z,9.20
2018-01-25T21:05:06.306Z,9.30
2018-01-25T21:07:36.441Z,9.30
2018-01-25T21:10:04.633Z,9.30
2018-01-25T21:12:32.247Z,9.30
2018-01-25T21:14:59.769Z,9.40
2018-01-25T21:17:27.352Z,9.40
2018-01-25T21:19:54.901Z,9.40
2018-01-25T21:22:23.188Z,9.50
2018-01-25T21:24:50.749Z,9.50
2018-01-25T21:27:18.257Z,9.50
2018-01-25T21:29:45.788Z,9.50
2018-01-25T21:32:13.334Z,9.50
2018-01-25T21:34:41.618Z,9.50
2018-01-25T21:37:09.990Z,9.50
2018-01-25T21:39:38.263Z,9.60
2018-01-25T21:42:06.578Z,9.60
2018-01-25T21:44:34.619Z,9.60
2018-01-25T21:47:02.143Z,9.60
2018-01-25T21:49:29.669Z,9.60
2018-01-25T21:51:58.775Z,9.60
2018-01-25T21:54:26.510Z,9.50
2018-01-25T21:56:54.026Z,9.60
2018-01-25T21:59:21.540Z,9.50
2018-01-25T22:01:50.227Z,9.50
2018-01-25T22:04:19.226Z,9.50
2018-01-25T22:06:47.625Z,9.50
2018-01-25T22:09:15.881Z,9.40
2018-01-25T22:11:43.374Z,9.50
2018-01-25T22:14:12.834Z,9.50
2018-01-25T22:16:40.354Z,9.40
2018-01-25T22:19:07.885Z,9.50
2018-01-25T22:21:36.191Z,9.50
2018-01-25T22:24:05.477Z,9.40
2018-01-25T22:26:33.757Z,9.40
2018-01-25T22:29:02.025Z,9.40
2018-01-25T22:31:30.260Z,9.40
2018-01-25T22:33:57.803Z,9.40
2018-01-25T22:36:26.950Z,9.40
2018-01-25T22:38:54.471Z,9.40
2018-01-25T22:41:22.141Z,9.40
2018-01-25T22:43:49.653Z,9.40
2018-01-25T22:46:17.216Z,9.40
2018-01-25T22:48:44.819Z,9.40
2018-01-25T22:51:13.137Z,9.40
2018-01-25T22:53:40.645Z,9.40
2018-01-25T22:56:08.908Z,9.40
2018-01-25T22:58:36.424Z,9.40
2018-01-25T23:01:03.930Z,9.40
2018-01-25T23:03:31.492Z,9.40
2018-01-25T23:05:59.009Z,9.50
2018-01-25T23:08:30.158Z,9.50
2018-01-25T23:10:57.693Z,9.50
2018-01-25T23:13:25.972Z,9.50
2018-01-25T23:15:53.477Z,9.50
2018-01-25T23:18:21.020Z,9.50
2018-01-25T23:20:48.551Z,9.50
2018-01-25T23:23:16.823Z,9.40
2018-01-25T23:25:44.382Z,9.40
2018-01-25T23:28:11.925Z,9.40
2018-01-25T23:30:39.435Z,9.40
2018-01-25T23:33:08.452Z,9.40
2018-01-25T23:35:36.037Z,9.30
2018-01-25T23:38:03.540Z,9.30
2018-01-25T23:40:31.035Z,9.30
2018-01-25T23:42:59.903Z,9.30
2018-01-25T23:45:27.421Z,9.30
2018-01-25T23:47:54.936Z,9.30
2018-01-25T23:50:22.441Z,9.40
2018-01-25T23:52:49.941Z,9.40
2018-01-25T23:55:17.444Z,9.40
2018-01-25T23:57:44.956Z,9.40
